CheckWX is a tool to help pilots better visualize weather data.  It is not intended as a substitute for an official pre-flight weather briefing.

15:19:27 UTC

KCXP TAF
Carson Airport
Carson City, Nevada, USA
KCXP 291741Z 2918/3018 VRB04KT P6SM FEW070 SCT180 FM292100 26010G16KT P6SM FEW070 SCT110 BKN180 FM300000 26010KT P6SM VCSH SCT070 BKN100 FM300400 VRB04KT P6SM SCT090 BKN120 FM301400 22012G22KT P6SM VCSH FEW040 SCT070

May-29@
18:00 UTC

May-29 @ 18:00 UTC

May-29@
21:00 UTC

May-29 @ 21:00 UTC

TAF KCXP 291741Z 2918/3018 VRB04KT P6SM FEW070 SCT180

Expired

Wind
  • Variable at 4 KTS
Cloud Levels
  • Few at 7,000' AGL
  • Scattered at 18,000' AGL

May-29@
21:00 UTC

May-29 @ 21:00 UTC

May-30@
00:00 UTC

May-30 @ 00:00 UTC

FM292100 26010G16KT P6SM FEW070 SCT110 BKN180

Expired

Wind
  • 260° at 10 KTS
  • {Gusting to 16 KTS
Cloud Levels
  • Few at 7,000' AGL
  • Scattered at 11,000' AGL
  • Broken at 18,000' AGL

May-30@
00:00 UTC

May-30 @ 00:00 UTC

May-30@
04:00 UTC

May-30 @ 04:00 UTC

FM300000 26010KT P6SM VCSH SCT070 BKN100

Expired

Wind
  • 260° at 10 KTS
Conditions
Area Showers
Cloud Levels
  • Scattered at 7,000' AGL
  • Broken at 10,000' AGL

May-30@
04:00 UTC

May-30 @ 04:00 UTC

May-30@
14:00 UTC

May-30 @ 14:00 UTC

FM300400 VRB04KT P6SM SCT090 BKN120

Expired

Wind
  • Variable at 4 KTS
Cloud Levels
  • Scattered at 9,000' AGL
  • Broken at 12,000' AGL

May-30@
14:00 UTC

May-30 @ 14:00 UTC

May-30@
18:00 UTC

May-30 @ 18:00 UTC

FM301400 22012G22KT P6SM VCSH FEW040 SCT070

From

From Standard forecast or significant change

Wind
  • 220° at 12 KTS
  • {Gusting to 22 KTS
Conditions
Area Showers
Cloud Levels
  • Few at 4,000' AGL
  • Scattered at 7,000' AGL